sensor_id;sensor_type;location;lat;lon;timestamp;temperature;humidity
49238;DHT22;35069;47.906;1.892;2023-02-04T00:01:35;9.20;99.90
49238;DHT22;35069;47.906;1.892;2023-02-04T00:04:00;9.30;99.90
49238;DHT22;35069;47.906;1.892;2023-02-04T00:06:26;9.20;99.90
49238;DHT22;35069;47.906;1.892;2023-02-04T00:08:52;9.20;99.90
49238;DHT22;35069;47.906;1.892;2023-02-04T00:11:18;9.20;99.90
49238;DHT22;35069;47.906;1.892;2023-02-04T00:13:43;9.30;99.90
49238;DHT22;35069;47.906;1.892;2023-02-04T00:16:10;9.20;99.90
49238;DHT22;35069;47.906;1.892;2023-02-04T00:18:36;9.20;99.90
49238;DHT22;35069;47.906;1.892;2023-02-04T00:21:01;9.20;99.90
49238;DHT22;35069;47.906;1.892;2023-02-04T00:23:27;9.20;99.90
49238;DHT22;35069;47.906;1.892;2023-02-04T00:25:53;9.20;99.90
49238;DHT22;35069;47.906;1.892;2023-02-04T00:28:18;9.20;99.90
49238;DHT22;35069;47.906;1.892;2023-02-04T00:30:44;9.20;99.90
49238;DHT22;35069;47.906;1.892;2023-02-04T00:33:10;9.20;99.90
49238;DHT22;35069;47.906;1.892;2023-02-04T00:35:35;9.20;99.90
49238;DHT22;35069;47.906;1.892;2023-02-04T00:38:05;9.20;99.90
49238;DHT22;35069;47.906;1.892;2023-02-04T00:40:31;9.20;99.90
49238;DHT22;35069;47.906;1.892;2023-02-04T00:42:56;9.20;99.90
49238;DHT22;35069;47.906;1.892;2023-02-04T00:45:22;9.20;99.90
49238;DHT22;35069;47.906;1.892;2023-02-04T00:47:48;9.20;99.90
49238;DHT22;35069;47.906;1.892;2023-02-04T00:50:14;9.20;99.90
49238;DHT22;35069;47.906;1.892;2023-02-04T00:52:39;9.10;99.90
49238;DHT22;35069;47.906;1.892;2023-02-04T00:55:05;9.10;99.90
49238;DHT22;35069;47.906;1.892;2023-02-04T00:57:32;9.10;99.90
49238;DHT22;35069;47.906;1.892;2023-02-04T00:59:58;9.10;99.90
49238;DHT22;35069;47.906;1.892;2023-02-04T01:02:24;9.10;99.90
49238;DHT22;35069;47.906;1.892;2023-02-04T01:04:49;9.10;99.90
49238;DHT22;35069;47.906;1.892;2023-02-04T01:07:15;9.10;99.90
49238;DHT22;35069;47.906;1.892;2023-02-04T01:09:40;9.10;99.90
49238;DHT22;35069;47.906;1.892;2023-02-04T01:12:06;9.10;99.90
49238;DHT22;35069;47.906;1.892;2023-02-04T01:14:31;9.10;99.90
49238;DHT22;35069;47.906;1.892;2023-02-04T01:16:57;9.10;99.90
49238;DHT22;35069;47.906;1.892;2023-02-04T01:19:23;9.10;99.90
49238;DHT22;35069;47.906;1.892;2023-02-04T01:21:49;9.20;99.90
49238;DHT22;35069;47.906;1.892;2023-02-04T01:24:14;9.10;99.90
49238;DHT22;35069;47.906;1.892;2023-02-04T01:26:40;9.10;99.90
49238;DHT22;35069;47.906;1.892;2023-02-04T01:29:06;9.10;99.90
49238;DHT22;35069;47.906;1.892;2023-02-04T01:31:31;9.10;99.90
49238;DHT22;35069;47.906;1.892;2023-02-04T01:33:58;9.10;99.90
49238;DHT22;35069;47.906;1.892;2023-02-04T01:36:25;9.10;99.90
49238;DHT22;35069;47.906;1.892;2023-02-04T01:38:51;9.10;99.90
49238;DHT22;35069;47.906;1.892;2023-02-04T01:41:17;9.10;99.90
49238;DHT22;35069;47.906;1.892;2023-02-04T01:43:44;9.10;99.90
49238;DHT22;35069;47.906;1.892;2023-02-04T01:46:10;9.10;99.90
49238;DHT22;35069;47.906;1.892;2023-02-04T01:48:35;9.10;99.90
49238;DHT22;35069;47.906;1.892;2023-02-04T01:51:05;9.10;99.90
49238;DHT22;35069;47.906;1.892;2023-02-04T01:53:31;9.10;99.90
49238;DHT22;35069;47.906;1.892;2023-02-04T01:55:57;9.10;99.90
49238;DHT22;35069;47.906;1.892;2023-02-04T01:58:23;9.10;99.90
49238;DHT22;35069;47.906;1.892;2023-02-04T02:00:50;9.10;99.90
49238;DHT22;35069;47.906;1.892;2023-02-04T02:03:16;9.10;99.90
49238;DHT22;35069;47.906;1.892;2023-02-04T02:05:49;9.10;99.90
49238;DHT22;35069;47.906;1.892;2023-02-04T02:08:16;9.10;99.90
49238;DHT22;35069;47.906;1.892;2023-02-04T02:10:44;9.00;99.90
49238;DHT22;35069;47.906;1.892;2023-02-04T02:13:13;9.00;99.90
49238;DHT22;35069;47.906;1.892;2023-02-04T02:15:39;9.10;99.90
49238;DHT22;35069;47.906;1.892;2023-02-04T02:18:06;9.10;99.90
49238;DHT22;35069;47.906;1.892;2023-02-04T02:20:32;9.10;99.90
49238;DHT22;35069;47.906;1.892;2023-02-04T02:25:30;9.20;99.90
49238;DHT22;35069;47.906;1.892;2023-02-04T02:27:56;9.20;99.90
49238;DHT22;35069;47.906;1.892;2023-02-04T02:30:23;9.20;99.90
49238;DHT22;35069;47.906;1.892;2023-02-04T02:32:49;9.20;99.90
49238;DHT22;35069;47.906;1.892;2023-02-04T02:35:16;9.20;99.90
49238;DHT22;35069;47.906;1.892;2023-02-04T02:37:42;9.30;99.90
49238;DHT22;35069;47.906;1.892;2023-02-04T02:40:09;9.20;99.90
49238;DHT22;35069;47.906;1.892;2023-02-04T02:42:35;9.20;99.90
49238;DHT22;35069;47.906;1.892;2023-02-04T02:45:05;9.20;99.90
49238;DHT22;35069;47.906;1.892;2023-02-04T02:47:32;9.20;99.90
49238;DHT22;35069;47.906;1.892;2023-02-04T02:49:58;9.20;99.90
49238;DHT22;35069;47.906;1.892;2023-02-04T02:52:24;9.20;99.90
49238;DHT22;35069;47.906;1.892;2023-02-04T02:54:49;9.20;99.90
49238;DHT22;35069;47.906;1.892;2023-02-04T02:57:18;9.20;99.90
49238;DHT22;35069;47.906;1.892;2023-02-04T02:59:44;9.20;99.90
49238;DHT22;35069;47.906;1.892;2023-02-04T03:02:12;9.20;99.90
49238;DHT22;35069;47.906;1.892;2023-02-04T03:04:43;9.20;99.90
49238;DHT22;35069;47.906;1.892;2023-02-04T03:07:10;9.20;99.90
49238;DHT22;35069;47.906;1.892;2023-02-04T03:09:37;9.20;99.90
49238;DHT22;35069;47.906;1.892;2023-02-04T03:12:04;9.20;99.90
49238;DHT22;35069;47.906;1.892;2023-02-04T03:14:30;9.20;99.90
49238;DHT22;35069;47.906;1.892;2023-02-04T03:16:56;9.20;99.90
49238;DHT22;35069;47.906;1.892;2023-02-04T03:19:24;9.20;99.90
49238;DHT22;35069;47.906;1.892;2023-02-04T03:21:51;9.20;99.90
49238;DHT22;35069;47.906;1.892;2023-02-04T03:24:17;9.20;99.90
49238;DHT22;35069;47.906;1.892;2023-02-04T03:26:43;9.20;99.90
49238;DHT22;35069;47.906;1.892;2023-02-04T03:29:09;9.20;99.90
49238;DHT22;35069;47.906;1.892;2023-02-04T03:31:35;9.20;99.90
49238;DHT22;35069;47.906;1.892;2023-02-04T03:34:02;9.20;99.90
49238;DHT22;35069;47.906;1.892;2023-02-04T03:36:28;9.20;99.90
49238;DHT22;35069;47.906;1.892;2023-02-04T03:38:54;9.20;99.90
49238;DHT22;35069;47.906;1.892;2023-02-04T03:41:20;9.20;99.90
49238;DHT22;35069;47.906;1.892;2023-02-04T03:43:45;9.20;99.90
49238;DHT22;35069;47.906;1.892;2023-02-04T03:46:11;9.20;99.90
49238;DHT22;35069;47.906;1.892;2023-02-04T03:48:37;9.20;99.90
49238;DHT22;35069;47.906;1.892;2023-02-04T03:51:03;9.20;99.90
49238;DHT22;35069;47.906;1.892;2023-02-04T03:53:28;9.10;99.90
49238;DHT22;35069;47.906;1.892;2023-02-04T03:55:54;9.20;99.90
49238;DHT22;35069;47.906;1.892;2023-02-04T03:58:20;9.10;99.90
49238;DHT22;35069;47.906;1.892;2023-02-04T04:00:45;9.10;99.90
49238;DHT22;35069;47.906;1.892;2023-02-04T04:03:11;9.10;99.90
49238;DHT22;35069;47.906;1.892;2023-02-04T04:05:37;9.10;99.90
49238;DHT22;35069;47.906;1.892;2023-02-04T04:08:02;9.10;99.90
49238;DHT22;35069;47.906;1.892;2023-02-04T04:10:28;9.10;99.90
49238;DHT22;35069;47.906;1.892;2023-02-04T04:12:53;9.10;99.90
49238;DHT22;35069;47.906;1.892;2023-02-04T04:15:19;9.10;99.90
49238;DHT22;35069;47.906;1.892;2023-02-04T04:17:45;9.10;99.90
49238;DHT22;35069;47.906;1.892;2023-02-04T04:20:11;9.10;99.90
49238;DHT22;35069;47.906;1.892;2023-02-04T04:22:37;9.10;99.90
49238;DHT22;35069;47.906;1.892;2023-02-04T04:25:02;9.10;99.90
49238;DHT22;35069;47.906;1.892;2023-02-04T04:27:28;9.10;99.90
49238;DHT22;35069;47.906;1.892;2023-02-04T04:29:55;9.10;99.90
49238;DHT22;35069;47.906;1.892;2023-02-04T04:32:21;9.10;99.90
49238;DHT22;35069;47.906;1.892;2023-02-04T04:34:46;9.00;99.90
49238;DHT22;35069;47.906;1.892;2023-02-04T04:37:12;9.00;99.90
49238;DHT22;35069;47.906;1.892;2023-02-04T04:39:38;9.00;99.90
49238;DHT22;35069;47.906;1.892;2023-02-04T04:42:04;9.00;99.90
49238;DHT22;35069;47.906;1.892;2023-02-04T04:44:30;9.00;99.90
49238;DHT22;35069;47.906;1.892;2023-02-04T04:46:55;9.00;99.90
49238;DHT22;35069;47.906;1.892;2023-02-04T04:49:21;9.00;99.90
49238;DHT22;35069;47.906;1.892;2023-02-04T04:51:46;9.00;99.90
49238;DHT22;35069;47.906;1.892;2023-02-04T04:54:12;9.00;99.90
49238;DHT22;35069;47.906;1.892;2023-02-04T04:56:38;9.00;99.90
49238;DHT22;35069;47.906;1.892;2023-02-04T04:59:03;8.90;99.90
49238;DHT22;35069;47.906;1.892;2023-02-04T05:01:29;9.00;99.90
49238;DHT22;35069;47.906;1.892;2023-02-04T05:03:54;8.90;99.90
49238;DHT22;35069;47.906;1.892;2023-02-04T05:06:20;9.00;99.90
49238;DHT22;35069;47.906;1.892;2023-02-04T05:08:53;9.00;99.90
49238;DHT22;35069;47.906;1.892;2023-02-04T05:11:19;8.90;99.90
49238;DHT22;35069;47.906;1.892;2023-02-04T05:13:45;8.90;99.90
49238;DHT22;35069;47.906;1.892;2023-02-04T05:16:11;8.90;99.90
49238;DHT22;35069;47.906;1.892;2023-02-04T05:18:37;8.90;99.90
49238;DHT22;35069;47.906;1.892;2023-02-04T05:21:03;8.90;99.90
49238;DHT22;35069;47.906;1.892;2023-02-04T05:23:29;8.90;99.90
49238;DHT22;35069;47.906;1.892;2023-02-04T05:25:55;8.90;99.90
49238;DHT22;35069;47.906;1.892;2023-02-04T05:28:20;8.90;99.90
49238;DHT22;35069;47.906;1.892;2023-02-04T05:30:46;8.90;99.90
49238;DHT22;35069;47.906;1.892;2023-02-04T05:33:12;8.90;99.90
49238;DHT22;35069;47.906;1.892;2023-02-04T05:35:37;8.90;99.90
49238;DHT22;35069;47.906;1.892;2023-02-04T05:38:03;8.90;99.90
49238;DHT22;35069;47.906;1.892;2023-02-04T05:40:28;8.90;99.90
49238;DHT22;35069;47.906;1.892;2023-02-04T05:42:54;8.90;99.90
49238;DHT22;35069;47.906;1.892;2023-02-04T05:45:20;8.90;99.90
49238;DHT22;35069;47.906;1.892;2023-02-04T05:47:45;8.90;99.90
49238;DHT22;35069;47.906;1.892;2023-02-04T05:50:11;8.80;99.90
49238;DHT22;35069;47.906;1.892;2023-02-04T05:52:37;8.90;99.90
49238;DHT22;35069;47.906;1.892;2023-02-04T05:55:03;8.90;99.90
49238;DHT22;35069;47.906;1.892;2023-02-04T05:57:29;8.80;99.90
49238;DHT22;35069;47.906;1.892;2023-02-04T05:59:55;8.90;99.90
49238;DHT22;35069;47.906;1.892;2023-02-04T06:02:20;8.80;99.90
49238;DHT22;35069;47.906;1.892;2023-02-04T06:04:46;8.80;99.90
49238;DHT22;35069;47.906;1.892;2023-02-04T06:07:11;8.90;99.90
49238;DHT22;35069;47.906;1.892;2023-02-04T06:09:37;8.80;99.90
49238;DHT22;35069;47.906;1.892;2023-02-04T06:12:03;8.80;99.90
49238;DHT22;35069;47.906;1.892;2023-02-04T06:14:28;8.80;99.90
49238;DHT22;35069;47.906;1.892;2023-02-04T06:16:54;8.80;99.90
49238;DHT22;35069;47.906;1.892;2023-02-04T06:19:20;8.80;99.90
49238;DHT22;35069;47.906;1.892;2023-02-04T06:21:45;8.80;99.90
49238;DHT22;35069;47.906;1.892;2023-02-04T06:24:11;8.80;99.90
49238;DHT22;35069;47.906;1.892;2023-02-04T06:26:37;8.80;99.90
49238;DHT22;35069;47.906;1.892;2023-02-04T06:29:02;8.80;99.90
49238;DHT22;35069;47.906;1.892;2023-02-04T06:31:28;8.80;99.90
49238;DHT22;35069;47.906;1.892;2023-02-04T06:33:53;8.80;99.90
49238;DHT22;35069;47.906;1.892;2023-02-04T06:36:19;8.80;99.90
49238;DHT22;35069;47.906;1.892;2023-02-04T06:38:44;8.80;99.90
49238;DHT22;35069;47.906;1.892;2023-02-04T06:41:10;8.80;99.90
49238;DHT22;35069;47.906;1.892;2023-02-04T06:43:36;8.80;99.90
49238;DHT22;35069;47.906;1.892;2023-02-04T06:46:01;8.80;99.90
49238;DHT22;35069;47.906;1.892;2023-02-04T06:48:27;8.90;99.90
49238;DHT22;35069;47.906;1.892;2023-02-04T06:50:53;8.80;99.90
49238;DHT22;35069;47.906;1.892;2023-02-04T06:53:18;8.80;99.90
49238;DHT22;35069;47.906;1.892;2023-02-04T06:55:44;8.80;99.90
49238;DHT22;35069;47.906;1.892;2023-02-04T06:58:09;8.80;99.90
49238;DHT22;35069;47.906;1.892;2023-02-04T07:00:35;8.70;99.90
49238;DHT22;35069;47.906;1.892;2023-02-04T07:03:00;8.80;99.90
49238;DHT22;35069;47.906;1.892;2023-02-04T07:05:26;8.90;99.90
49238;DHT22;35069;47.906;1.892;2023-02-04T07:07:52;9.00;99.90
49238;DHT22;35069;47.906;1.892;2023-02-04T07:10:18;8.90;99.90
49238;DHT22;35069;47.906;1.892;2023-02-04T07:12:45;9.00;99.90
49238;DHT22;35069;47.906;1.892;2023-02-04T07:15:11;9.00;99.90
49238;DHT22;35069;47.906;1.892;2023-02-04T07:17:37;9.00;99.90
49238;DHT22;35069;47.906;1.892;2023-02-04T07:20:02;9.10;99.90
49238;DHT22;35069;47.906;1.892;2023-02-04T07:22:28;9.10;99.90
49238;DHT22;35069;47.906;1.892;2023-02-04T07:24:54;9.10;99.90
49238;DHT22;35069;47.906;1.892;2023-02-04T07:27:19;9.00;99.90
49238;DHT22;35069;47.906;1.892;2023-02-04T07:29:45;9.00;99.90
49238;DHT22;35069;47.906;1.892;2023-02-04T07:32:10;8.90;99.90
49238;DHT22;35069;47.906;1.892;2023-02-04T07:34:36;9.00;99.90
49238;DHT22;35069;47.906;1.892;2023-02-04T07:37:02;9.00;99.90
49238;DHT22;35069;47.906;1.892;2023-02-04T07:39:27;9.00;99.90
49238;DHT22;35069;47.906;1.892;2023-02-04T07:41:53;9.00;99.90
49238;DHT22;35069;47.906;1.892;2023-02-04T07:44:18;9.00;99.90
49238;DHT22;35069;47.906;1.892;2023-02-04T07:46:44;9.10;99.90
49238;DHT22;35069;47.906;1.892;2023-02-04T07:49:09;9.10;99.90
49238;DHT22;35069;47.906;1.892;2023-02-04T07:51:35;9.10;99.90
49238;DHT22;35069;47.906;1.892;2023-02-04T07:54:01;9.20;99.90
49238;DHT22;35069;47.906;1.892;2023-02-04T07:56:26;9.20;99.90
49238;DHT22;35069;47.906;1.892;2023-02-04T07:58:52;9.20;99.90
49238;DHT22;35069;47.906;1.892;2023-02-04T08:01:18;9.20;99.90
49238;DHT22;35069;47.906;1.892;2023-02-04T08:03:43;9.30;99.90
49238;DHT22;35069;47.906;1.892;2023-02-04T08:06:09;9.40;99.90
49238;DHT22;35069;47.906;1.892;2023-02-04T08:08:35;9.40;99.90
49238;DHT22;35069;47.906;1.892;2023-02-04T08:11:00;9.50;99.90
49238;DHT22;35069;47.906;1.892;2023-02-04T08:13:26;9.50;99.90
49238;DHT22;35069;47.906;1.892;2023-02-04T08:15:51;9.60;99.90
49238;DHT22;35069;47.906;1.892;2023-02-04T08:18:17;9.50;99.90
49238;DHT22;35069;47.906;1.892;2023-02-04T08:20:43;9.60;99.90
49238;DHT22;35069;47.906;1.892;2023-02-04T08:23:08;9.60;99.90
49238;DHT22;35069;47.906;1.892;2023-02-04T08:25:34;9.60;99.90
49238;DHT22;35069;47.906;1.892;2023-02-04T08:27:59;9.60;99.90
49238;DHT22;35069;47.906;1.892;2023-02-04T08:30:25;9.60;99.90
49238;DHT22;35069;47.906;1.892;2023-02-04T08:32:51;9.50;99.90
49238;DHT22;35069;47.906;1.892;2023-02-04T08:35:16;9.50;99.90
49238;DHT22;35069;47.906;1.892;2023-02-04T08:37:42;9.50;99.90
49238;DHT22;35069;47.906;1.892;2023-02-04T08:40:08;9.60;99.90
49238;DHT22;35069;47.906;1.892;2023-02-04T08:42:33;9.60;99.90
49238;DHT22;35069;47.906;1.892;2023-02-04T08:44:59;9.60;99.90
49238;DHT22;35069;47.906;1.892;2023-02-04T08:47:25;9.60;99.90
49238;DHT22;35069;47.906;1.892;2023-02-04T08:49:51;9.50;99.90
49238;DHT22;35069;47.906;1.892;2023-02-04T08:52:16;9.60;99.90
49238;DHT22;35069;47.906;1.892;2023-02-04T08:54:43;9.60;99.90
49238;DHT22;35069;47.906;1.892;2023-02-04T08:57:09;9.60;99.90
49238;DHT22;35069;47.906;1.892;2023-02-04T08:59:34;9.60;99.90
49238;DHT22;35069;47.906;1.892;2023-02-04T09:02:00;9.80;99.90
49238;DHT22;35069;47.906;1.892;2023-02-04T09:04:27;9.80;99.90
49238;DHT22;35069;47.906;1.892;2023-02-04T09:06:53;9.80;99.90
49238;DHT22;35069;47.906;1.892;2023-02-04T09:09:19;9.80;99.90
49238;DHT22;35069;47.906;1.892;2023-02-04T09:11:45;9.80;99.90
49238;DHT22;35069;47.906;1.892;2023-02-04T09:14:10;9.80;99.90
49238;DHT22;35069;47.906;1.892;2023-02-04T09:16:36;9.80;99.90
49238;DHT22;35069;47.906;1.892;2023-02-04T09:19:01;9.80;99.90
49238;DHT22;35069;47.906;1.892;2023-02-04T09:21:28;9.80;99.90
49238;DHT22;35069;47.906;1.892;2023-02-04T09:23:53;9.90;99.90
49238;DHT22;35069;47.906;1.892;2023-02-04T09:26:19;10.00;99.90
49238;DHT22;35069;47.906;1.892;2023-02-04T09:28:45;10.00;99.90
49238;DHT22;35069;47.906;1.892;2023-02-04T09:31:12;10.10;99.90
49238;DHT22;35069;47.906;1.892;2023-02-04T09:33:37;10.10;99.90
49238;DHT22;35069;47.906;1.892;2023-02-04T09:36:03;10.20;99.90
49238;DHT22;35069;47.906;1.892;2023-02-04T09:38:29;10.20;99.90
49238;DHT22;35069;47.906;1.892;2023-02-04T09:40:59;10.30;99.90
49238;DHT22;35069;47.906;1.892;2023-02-04T09:43:33;10.30;99.90
49238;DHT22;35069;47.906;1.892;2023-02-04T09:45:59;10.30;99.90
49238;DHT22;35069;47.906;1.892;2023-02-04T09:48:25;10.30;99.90
49238;DHT22;35069;47.906;1.892;2023-02-04T09:50:52;10.30;99.90
49238;DHT22;35069;47.906;1.892;2023-02-04T09:53:23;10.40;99.90
49238;DHT22;35069;47.906;1.892;2023-02-04T09:55:50;10.40;99.90
49238;DHT22;35069;47.906;1.892;2023-02-04T09:58:18;10.50;99.90
49238;DHT22;35069;47.906;1.892;2023-02-04T10:00:46;10.50;99.90
49238;DHT22;35069;47.906;1.892;2023-02-04T10:03:17;10.60;99.90
49238;DHT22;35069;47.906;1.892;2023-02-04T10:05:44;10.60;99.90
49238;DHT22;35069;47.906;1.892;2023-02-04T10:08:14;10.60;99.90
49238;DHT22;35069;47.906;1.892;2023-02-04T10:10:40;10.60;99.90
49238;DHT22;35069;47.906;1.892;2023-02-04T10:13:17;10.60;99.90
49238;DHT22;35069;47.906;1.892;2023-02-04T10:15:45;10.60;99.90
49238;DHT22;35069;47.906;1.892;2023-02-04T10:18:18;10.70;99.90
49238;DHT22;35069;47.906;1.892;2023-02-04T10:20:45;10.80;99.90
49238;DHT22;35069;47.906;1.892;2023-02-04T10:23:14;10.80;99.90
49238;DHT22;35069;47.906;1.892;2023-02-04T10:25:39;10.80;99.90
49238;DHT22;35069;47.906;1.892;2023-02-04T10:28:05;10.80;99.90
49238;DHT22;35069;47.906;1.892;2023-02-04T10:30:41;10.90;99.90
49238;DHT22;35069;47.906;1.892;2023-02-04T10:33:21;10.90;99.90
49238;DHT22;35069;47.906;1.892;2023-02-04T10:35:50;10.90;99.90
49238;DHT22;35069;47.906;1.892;2023-02-04T10:38:17;10.90;99.90
49238;DHT22;35069;47.906;1.892;2023-02-04T10:40:42;11.00;99.90
49238;DHT22;35069;47.906;1.892;2023-02-04T10:45:35;10.90;99.90
49238;DHT22;35069;47.906;1.892;2023-02-04T10:48:01;11.00;99.90
49238;DHT22;35069;47.906;1.892;2023-02-04T10:50:28;11.10;99.90
49238;DHT22;35069;47.906;1.892;2023-02-04T10:52:57;11.10;99.90
49238;DHT22;35069;47.906;1.892;2023-02-04T10:55:45;11.20;99.90
49238;DHT22;35069;47.906;1.892;2023-02-04T10:58:16;11.20;99.90
49238;DHT22;35069;47.906;1.892;2023-02-04T11:00:43;11.20;99.90
49238;DHT22;35069;47.906;1.892;2023-02-04T11:03:21;11.20;99.90
49238;DHT22;35069;47.906;1.892;2023-02-04T11:05:47;11.20;99.90
49238;DHT22;35069;47.906;1.892;2023-02-04T11:08:26;11.20;99.90
49238;DHT22;35069;47.906;1.892;2023-02-04T11:10:58;11.30;99.90
49238;DHT22;35069;47.906;1.892;2023-02-04T11:13:27;11.40;99.90
49238;DHT22;35069;47.906;1.892;2023-02-04T11:16:11;11.40;99.90
49238;DHT22;35069;47.906;1.892;2023-02-04T11:26:51;11.60;99.90
49238;DHT22;35069;47.906;1.892;2023-02-04T11:29:31;11.60;99.90
49238;DHT22;35069;47.906;1.892;2023-02-04T11:32:06;11.60;99.90
49238;DHT22;35069;47.906;1.892;2023-02-04T11:34:47;11.70;99.90
49238;DHT22;35069;47.906;1.892;2023-02-04T11:37:27;11.70;99.90
49238;DHT22;35069;47.906;1.892;2023-02-04T11:39:57;11.80;99.90
49238;DHT22;35069;47.906;1.892;2023-02-04T11:42:39;11.90;99.90
49238;DHT22;35069;47.906;1.892;2023-02-04T11:45:24;11.90;99.90
49238;DHT22;35069;47.906;1.892;2023-02-04T11:47:51;12.00;99.90
49238;DHT22;35069;47.906;1.892;2023-02-04T11:50:23;12.10;99.90
49238;DHT22;35069;47.906;1.892;2023-02-04T11:52:50;12.20;99.90
49238;DHT22;35069;47.906;1.892;2023-02-04T11:55:16;12.30;99.90
49238;DHT22;35069;47.906;1.892;2023-02-04T11:57:44;12.50;99.90
49238;DHT22;35069;47.906;1.892;2023-02-04T12:00:18;12.80;99.90
49238;DHT22;35069;47.906;1.892;2023-02-04T12:02:50;12.90;99.90
49238;DHT22;35069;47.906;1.892;2023-02-04T12:05:19;13.20;99.90
49238;DHT22;35069;47.906;1.892;2023-02-04T12:07:46;13.50;99.90
49238;DHT22;35069;47.906;1.892;2023-02-04T12:12:43;14.30;99.90
49238;DHT22;35069;47.906;1.892;2023-02-04T12:15:15;14.50;99.90
49238;DHT22;35069;47.906;1.892;2023-02-04T12:17:44;14.50;99.90
49238;DHT22;35069;47.906;1.892;2023-02-04T12:20:12;14.40;99.90
49238;DHT22;35069;47.906;1.892;2023-02-04T12:22:38;14.40;99.90
49238;DHT22;35069;47.906;1.892;2023-02-04T12:25:04;14.40;99.90
49238;DHT22;35069;47.906;1.892;2023-02-04T12:27:30;14.40;99.90
49238;DHT22;35069;47.906;1.892;2023-02-04T12:29:55;14.30;99.90
49238;DHT22;35069;47.906;1.892;2023-02-04T12:32:21;14.20;99.90
49238;DHT22;35069;47.906;1.892;2023-02-04T12:34:47;14.10;99.90
49238;DHT22;35069;47.906;1.892;2023-02-04T12:37:12;13.90;99.90
49238;DHT22;35069;47.906;1.892;2023-02-04T12:39:38;13.80;99.90
49238;DHT22;35069;47.906;1.892;2023-02-04T12:42:03;13.70;99.90
49238;DHT22;35069;47.906;1.892;2023-02-04T12:44:29;13.70;99.90
49238;DHT22;35069;47.906;1.892;2023-02-04T12:46:55;13.60;99.90
49238;DHT22;35069;47.906;1.892;2023-02-04T12:49:21;13.50;99.90
49238;DHT22;35069;47.906;1.892;2023-02-04T12:51:49;13.50;99.90
49238;DHT22;35069;47.906;1.892;2023-02-04T12:54:15;13.40;99.90
49238;DHT22;35069;47.906;1.892;2023-02-04T12:56:41;13.40;99.90
49238;DHT22;35069;47.906;1.892;2023-02-04T12:59:07;13.40;99.90
49238;DHT22;35069;47.906;1.892;2023-02-04T13:01:32;13.30;99.90
49238;DHT22;35069;47.906;1.892;2023-02-04T13:03:58;13.20;99.90
49238;DHT22;35069;47.906;1.892;2023-02-04T13:06:24;13.20;99.90
49238;DHT22;35069;47.906;1.892;2023-02-04T13:08:49;13.10;99.90
49238;DHT22;35069;47.906;1.892;2023-02-04T13:11:15;13.00;99.90
49238;DHT22;35069;47.906;1.892;2023-02-04T13:13:40;13.00;99.90
49238;DHT22;35069;47.906;1.892;2023-02-04T13:16:06;13.00;99.90
49238;DHT22;35069;47.906;1.892;2023-02-04T13:18:31;12.90;99.90
49238;DHT22;35069;47.906;1.892;2023-02-04T13:20:58;12.80;99.90
49238;DHT22;35069;47.906;1.892;2023-02-04T13:23:24;12.60;99.90
49238;DHT22;35069;47.906;1.892;2023-02-04T13:25:49;12.60;99.90
49238;DHT22;35069;47.906;1.892;2023-02-04T13:28:15;12.50;99.90
49238;DHT22;35069;47.906;1.892;2023-02-04T13:30:40;12.40;99.90
49238;DHT22;35069;47.906;1.892;2023-02-04T13:33:06;12.40;99.90
49238;DHT22;35069;47.906;1.892;2023-02-04T13:35:32;12.40;99.90
49238;DHT22;35069;47.906;1.892;2023-02-04T13:37:57;12.20;99.90
49238;DHT22;35069;47.906;1.892;2023-02-04T13:40:23;12.20;99.90
49238;DHT22;35069;47.906;1.892;2023-02-04T13:42:48;12.10;99.90
49238;DHT22;35069;47.906;1.892;2023-02-04T13:45:14;12.10;99.90
49238;DHT22;35069;47.906;1.892;2023-02-04T13:47:41;12.00;99.90
49238;DHT22;35069;47.906;1.892;2023-02-04T13:50:07;11.90;99.90
49238;DHT22;35069;47.906;1.892;2023-02-04T13:52:32;11.90;99.90
49238;DHT22;35069;47.906;1.892;2023-02-04T13:54:59;11.80;99.90
49238;DHT22;35069;47.906;1.892;2023-02-04T13:57:25;11.90;99.90
49238;DHT22;35069;47.906;1.892;2023-02-04T13:59:50;11.80;99.90
49238;DHT22;35069;47.906;1.892;2023-02-04T14:02:16;11.70;99.90
49238;DHT22;35069;47.906;1.892;2023-02-04T14:04:43;11.60;99.90
49238;DHT22;35069;47.906;1.892;2023-02-04T14:07:09;11.60;99.90
49238;DHT22;35069;47.906;1.892;2023-02-04T14:09:35;11.60;99.90
49238;DHT22;35069;47.906;1.892;2023-02-04T14:12:00;11.60;99.90
49238;DHT22;35069;47.906;1.892;2023-02-04T14:14:26;11.60;99.90
49238;DHT22;35069;47.906;1.892;2023-02-04T14:16:51;11.60;99.90
49238;DHT22;35069;47.906;1.892;2023-02-04T14:19:17;11.60;99.90
49238;DHT22;35069;47.906;1.892;2023-02-04T14:21:44;11.60;99.90
49238;DHT22;35069;47.906;1.892;2023-02-04T14:24:10;11.60;99.90
49238;DHT22;35069;47.906;1.892;2023-02-04T14:26:36;11.70;99.90
49238;DHT22;35069;47.906;1.892;2023-02-04T14:29:02;11.70;99.90
49238;DHT22;35069;47.906;1.892;2023-02-04T14:31:28;11.70;99.90
49238;DHT22;35069;47.906;1.892;2023-02-04T14:33:54;11.70;99.90
49238;DHT22;35069;47.906;1.892;2023-02-04T14:36:20;11.70;99.90
49238;DHT22;35069;47.906;1.892;2023-02-04T14:38:46;11.70;99.90
49238;DHT22;35069;47.906;1.892;2023-02-04T14:41:12;11.70;99.90
49238;DHT22;35069;47.906;1.892;2023-02-04T14:43:40;11.60;99.90
49238;DHT22;35069;47.906;1.892;2023-02-04T14:46:06;11.60;99.90
49238;DHT22;35069;47.906;1.892;2023-02-04T14:48:32;11.50;99.90
49238;DHT22;35069;47.906;1.892;2023-02-04T14:50:57;11.50;99.90
49238;DHT22;35069;47.906;1.892;2023-02-04T14:53:23;11.50;99.90
49238;DHT22;35069;47.906;1.892;2023-02-04T14:55:49;11.50;99.90
49238;DHT22;35069;47.906;1.892;2023-02-04T14:58:14;11.50;99.90
49238;DHT22;35069;47.906;1.892;2023-02-04T15:00:40;11.50;99.90
49238;DHT22;35069;47.906;1.892;2023-02-04T15:03:05;11.40;99.90
49238;DHT22;35069;47.906;1.892;2023-02-04T15:05:31;11.40;99.90
49238;DHT22;35069;47.906;1.892;2023-02-04T15:07:57;11.40;99.90
49238;DHT22;35069;47.906;1.892;2023-02-04T15:10:22;11.40;99.90
49238;DHT22;35069;47.906;1.892;2023-02-04T15:12:49;11.40;99.90
49238;DHT22;35069;47.906;1.892;2023-02-04T15:15:15;11.40;99.90
49238;DHT22;35069;47.906;1.892;2023-02-04T15:17:40;11.30;99.90
49238;DHT22;35069;47.906;1.892;2023-02-04T15:20:06;11.40;99.90
49238;DHT22;35069;47.906;1.892;2023-02-04T15:22:33;11.30;99.90
49238;DHT22;35069;47.906;1.892;2023-02-04T15:24:59;11.30;99.90
49238;DHT22;35069;47.906;1.892;2023-02-04T15:27:24;11.20;99.90
49238;DHT22;35069;47.906;1.892;2023-02-04T15:29:51;11.20;99.90
49238;DHT22;35069;47.906;1.892;2023-02-04T15:32:17;11.20;99.90
49238;DHT22;35069;47.906;1.892;2023-02-04T15:34:42;11.20;99.90
49238;DHT22;35069;47.906;1.892;2023-02-04T15:37:08;11.20;99.90
49238;DHT22;35069;47.906;1.892;2023-02-04T15:39:35;11.10;99.90
49238;DHT22;35069;47.906;1.892;2023-02-04T15:42:01;11.00;99.90
49238;DHT22;35069;47.906;1.892;2023-02-04T15:44:27;11.10;99.90
49238;DHT22;35069;47.906;1.892;2023-02-04T15:46:52;11.00;99.90
49238;DHT22;35069;47.906;1.892;2023-02-04T15:49:19;10.90;99.90
49238;DHT22;35069;47.906;1.892;2023-02-04T15:51:44;10.90;99.90